sensor_id;sensor_type;location;lat;lon;timestamp;P1;durP1;ratioP1;P2;durP2;ratioP2
9438;SDS011;5176;42.622;25.386;2022-08-01T00:02:13;3.08;;;2.78;;
9438;SDS011;5176;42.622;25.386;2022-08-01T00:04:40;2.53;;;2.42;;
9438;SDS011;5176;42.622;25.386;2022-08-01T00:07:08;2.30;;;2.20;;
9438;SDS011;5176;42.622;25.386;2022-08-01T00:09:36;2.30;;;2.20;;
9438;SDS011;5176;42.622;25.386;2022-08-01T00:12:03;2.05;;;1.95;;
9438;SDS011;5176;42.622;25.386;2022-08-01T00:14:31;2.95;;;2.70;;
9438;SDS011;5176;42.622;25.386;2022-08-01T00:16:57;2.67;;;2.47;;
9438;SDS011;5176;42.622;25.386;2022-08-01T00:19:24;2.55;;;2.22;;
9438;SDS011;5176;42.622;25.386;2022-08-01T00:21:51;2.97;;;2.47;;
9438;SDS011;5176;42.622;25.386;2022-08-01T00:24:18;3.33;;;2.40;;
9438;SDS011;5176;42.622;25.386;2022-08-01T00:26:46;2.67;;;2.30;;
9438;SDS011;5176;42.622;25.386;2022-08-01T00:29:13;3.63;;;2.28;;
9438;SDS011;5176;42.622;25.386;2022-08-01T00:31:40;3.15;;;2.20;;
9438;SDS011;5176;42.622;25.386;2022-08-01T00:34:07;2.47;;;2.38;;
9438;SDS011;5176;42.622;25.386;2022-08-01T00:36:33;2.35;;;2.25;;
9438;SDS011;5176;42.622;25.386;2022-08-01T00:39:00;2.50;;;2.40;;
9438;SDS011;5176;42.622;25.386;2022-08-01T00:41:27;2.50;;;2.33;;
9438;SDS011;5176;42.622;25.386;2022-08-01T00:43:55;2.17;;;2.08;;
9438;SDS011;5176;42.622;25.386;2022-08-01T00:46:22;3.28;;;2.45;;
9438;SDS011;5176;42.622;25.386;2022-08-01T00:48:49;2.30;;;2.15;;
9438;SDS011;5176;42.622;25.386;2022-08-01T00:51:16;2.38;;;2.28;;
9438;SDS011;5176;42.622;25.386;2022-08-01T00:53:43;2.65;;;2.40;;
9438;SDS011;5176;42.622;25.386;2022-08-01T00:56:10;5.60;;;2.33;;
9438;SDS011;5176;42.622;25.386;2022-08-01T00:58:37;2.42;;;2.33;;
9438;SDS011;5176;42.622;25.386;2022-08-01T01:01:05;2.90;;;2.70;;
9438;SDS011;5176;42.622;25.386;2022-08-01T01:03:32;4.30;;;2.40;;
9438;SDS011;5176;42.622;25.386;2022-08-01T01:06:03;2.47;;;2.38;;
9438;SDS011;5176;42.622;25.386;2022-08-01T01:08:39;2.63;;;2.42;;
9438;SDS011;5176;42.622;25.386;2022-08-01T01:11:13;2.75;;;2.50;;
9438;SDS011;5176;42.622;25.386;2022-08-01T01:13:49;2.60;;;2.40;;
9438;SDS011;5176;42.622;25.386;2022-08-01T01:16:21;6.30;;;2.55;;
9438;SDS011;5176;42.622;25.386;2022-08-01T01:18:49;4.88;;;2.67;;
9438;SDS011;5176;42.622;25.386;2022-08-01T01:21:38;2.60;;;2.40;;
9438;SDS011;5176;42.622;25.386;2022-08-01T01:24:17;2.20;;;2.10;;
9438;SDS011;5176;42.622;25.386;2022-08-01T01:26:56;2.63;;;2.42;;
9438;SDS011;5176;42.622;25.386;2022-08-01T01:29:30;4.13;;;2.67;;
9438;SDS011;5176;42.622;25.386;2022-08-01T01:32:02;2.33;;;2.22;;
9438;SDS011;5176;42.622;25.386;2022-08-01T01:34:34;4.45;;;2.85;;
9438;SDS011;5176;42.622;25.386;2022-08-01T01:37:04;5.03;;;3.10;;
9438;SDS011;5176;42.622;25.386;2022-08-01T01:39:35;4.50;;;3.75;;
9438;SDS011;5176;42.622;25.386;2022-08-01T01:42:05;3.60;;;3.20;;
9438;SDS011;5176;42.622;25.386;2022-08-01T01:44:34;4.00;;;3.72;;
9438;SDS011;5176;42.622;25.386;2022-08-01T01:47:02;4.15;;;3.85;;
9438;SDS011;5176;42.622;25.386;2022-08-01T01:49:30;4.18;;;3.85;;
9438;SDS011;5176;42.622;25.386;2022-08-01T01:51:59;3.92;;;3.63;;
9438;SDS011;5176;42.622;25.386;2022-08-01T01:54:28;3.85;;;3.60;;
9438;SDS011;5176;42.622;25.386;2022-08-01T01:56:58;6.75;;;3.60;;
9438;SDS011;5176;42.622;25.386;2022-08-01T01:59:27;3.10;;;2.90;;
9438;SDS011;5176;42.622;25.386;2022-08-01T02:01:59;3.53;;;2.78;;
9438;SDS011;5176;42.622;25.386;2022-08-01T02:04:28;2.97;;;2.60;;
9438;SDS011;5176;42.622;25.386;2022-08-01T02:06:58;3.05;;;2.35;;
9438;SDS011;5176;42.622;25.386;2022-08-01T02:09:26;4.60;;;2.53;;
9438;SDS011;5176;42.622;25.386;2022-08-01T02:11:55;2.45;;;2.28;;
9438;SDS011;5176;42.622;25.386;2022-08-01T02:14:24;2.70;;;2.38;;
9438;SDS011;5176;42.622;25.386;2022-08-01T02:16:53;2.17;;;2.08;;
9438;SDS011;5176;42.622;25.386;2022-08-01T02:19:24;2.92;;;2.47;;
9438;SDS011;5176;42.622;25.386;2022-08-01T02:21:53;2.72;;;2.45;;
9438;SDS011;5176;42.622;25.386;2022-08-01T02:24:24;3.08;;;2.17;;
9438;SDS011;5176;42.622;25.386;2022-08-01T02:26:59;2.65;;;2.20;;
9438;SDS011;5176;42.622;25.386;2022-08-01T02:29:34;2.45;;;2.20;;
9438;SDS011;5176;42.622;25.386;2022-08-01T02:32:06;2.22;;;2.08;;
9438;SDS011;5176;42.622;25.386;2022-08-01T02:34:37;4.47;;;2.42;;
9438;SDS011;5176;42.622;25.386;2022-08-01T02:37:06;3.97;;;2.30;;
9438;SDS011;5176;42.622;25.386;2022-08-01T02:39:34;2.83;;;2.60;;
9438;SDS011;5176;42.622;25.386;2022-08-01T02:42:04;2.50;;;2.35;;
9438;SDS011;5176;42.622;25.386;2022-08-01T02:44:35;2.70;;;2.50;;
9438;SDS011;5176;42.622;25.386;2022-08-01T02:47:07;2.50;;;2.30;;
9438;SDS011;5176;42.622;25.386;2022-08-01T02:49:35;2.72;;;2.00;;
9438;SDS011;5176;42.622;25.386;2022-08-01T02:52:08;2.20;;;2.10;;
9438;SDS011;5176;42.622;25.386;2022-08-01T02:54:38;2.30;;;2.20;;
9438;SDS011;5176;42.622;25.386;2022-08-01T02:57:06;4.43;;;2.50;;
9438;SDS011;5176;42.622;25.386;2022-08-01T02:59:35;2.50;;;2.30;;
9438;SDS011;5176;42.622;25.386;2022-08-01T03:02:05;3.42;;;2.40;;
9438;SDS011;5176;42.622;25.386;2022-08-01T03:04:33;2.47;;;2.17;;
9438;SDS011;5176;42.622;25.386;2022-08-01T03:07:03;2.65;;;2.35;;
9438;SDS011;5176;42.622;25.386;2022-08-01T03:09:34;2.72;;;2.53;;
9438;SDS011;5176;42.622;25.386;2022-08-01T03:12:04;2.55;;;2.35;;
9438;SDS011;5176;42.622;25.386;2022-08-01T03:14:36;2.45;;;2.20;;
9438;SDS011;5176;42.622;25.386;2022-08-01T03:17:06;4.75;;;2.30;;
9438;SDS011;5176;42.622;25.386;2022-08-01T03:19:34;2.63;;;2.33;;
9438;SDS011;5176;42.622;25.386;2022-08-01T03:22:05;2.60;;;2.40;;
9438;SDS011;5176;42.622;25.386;2022-08-01T03:24:34;3.55;;;2.45;;
9438;SDS011;5176;42.622;25.386;2022-08-01T03:27:03;3.58;;;2.33;;
9438;SDS011;5176;42.622;25.386;2022-08-01T03:29:31;2.42;;;2.33;;
9438;SDS011;5176;42.622;25.386;2022-08-01T03:31:59;3.65;;;3.35;;
9438;SDS011;5176;42.622;25.386;2022-08-01T03:34:27;2.40;;;2.30;;
9438;SDS011;5176;42.622;25.386;2022-08-01T03:36:55;2.40;;;2.20;;
9438;SDS011;5176;42.622;25.386;2022-08-01T03:39:29;3.88;;;2.75;;
9438;SDS011;5176;42.622;25.386;2022-08-01T03:42:01;4.43;;;2.70;;
9438;SDS011;5176;42.622;25.386;2022-08-01T03:44:32;5.40;;;2.65;;
9438;SDS011;5176;42.622;25.386;2022-08-01T03:47:05;2.72;;;2.55;;
9438;SDS011;5176;42.622;25.386;2022-08-01T03:49:35;2.92;;;2.63;;
9438;SDS011;5176;42.622;25.386;2022-08-01T03:52:07;3.53;;;2.53;;
9438;SDS011;5176;42.622;25.386;2022-08-01T03:54:38;2.90;;;2.50;;
9438;SDS011;5176;42.622;25.386;2022-08-01T03:57:10;2.80;;;2.60;;
9438;SDS011;5176;42.622;25.386;2022-08-01T03:59:37;2.50;;;2.30;;
9438;SDS011;5176;42.622;25.386;2022-08-01T04:02:04;5.00;;;2.72;;
9438;SDS011;5176;42.622;25.386;2022-08-01T04:04:33;2.75;;;2.65;;
9438;SDS011;5176;42.622;25.386;2022-08-01T04:07:00;3.97;;;2.92;;
9438;SDS011;5176;42.622;25.386;2022-08-01T04:09:31;4.80;;;3.38;;
9438;SDS011;5176;42.622;25.386;2022-08-01T04:11:59;4.32;;;4.03;;
9438;SDS011;5176;42.622;25.386;2022-08-01T04:14:27;3.65;;;3.35;;
9438;SDS011;5176;42.622;25.386;2022-08-01T04:16:54;5.30;;;3.88;;
9438;SDS011;5176;42.622;25.386;2022-08-01T04:19:21;4.28;;;3.97;;
9438;SDS011;5176;42.622;25.386;2022-08-01T04:21:48;4.65;;;4.25;;
9438;SDS011;5176;42.622;25.386;2022-08-01T04:24:17;5.55;;;4.10;;
9438;SDS011;5176;42.622;25.386;2022-08-01T04:26:46;6.65;;;4.13;;
9438;SDS011;5176;42.622;25.386;2022-08-01T04:29:15;4.40;;;4.10;;
9438;SDS011;5176;42.622;25.386;2022-08-01T04:31:44;4.50;;;4.00;;
9438;SDS011;5176;42.622;25.386;2022-08-01T04:34:13;4.57;;;4.18;;
9438;SDS011;5176;42.622;25.386;2022-08-01T04:36:43;8.95;;;4.60;;
9438;SDS011;5176;42.622;25.386;2022-08-01T04:39:11;8.60;;;4.90;;
9438;SDS011;5176;42.622;25.386;2022-08-01T04:41:40;7.53;;;4.53;;
9438;SDS011;5176;42.622;25.386;2022-08-01T04:44:08;4.85;;;4.38;;
9438;SDS011;5176;42.622;25.386;2022-08-01T04:46:36;5.05;;;3.40;;
9438;SDS011;5176;42.622;25.386;2022-08-01T04:49:04;5.97;;;4.32;;
9438;SDS011;5176;42.622;25.386;2022-08-01T04:51:34;7.78;;;4.38;;
9438;SDS011;5176;42.622;25.386;2022-08-01T04:54:01;4.88;;;3.83;;
9438;SDS011;5176;42.622;25.386;2022-08-01T04:56:28;4.65;;;3.70;;
9438;SDS011;5176;42.622;25.386;2022-08-01T04:58:55;5.65;;;3.50;;
9438;SDS011;5176;42.622;25.386;2022-08-01T05:01:37;3.90;;;3.60;;
9438;SDS011;5176;42.622;25.386;2022-08-01T05:04:04;3.92;;;3.55;;
9438;SDS011;5176;42.622;25.386;2022-08-01T05:06:31;4.07;;;3.65;;
9438;SDS011;5176;42.622;25.386;2022-08-01T05:08:57;7.25;;;3.47;;
9438;SDS011;5176;42.622;25.386;2022-08-01T05:11:24;3.58;;;3.33;;
9438;SDS011;5176;42.622;25.386;2022-08-01T05:13:51;4.72;;;3.50;;
9438;SDS011;5176;42.622;25.386;2022-08-01T05:16:18;3.60;;;2.97;;
9438;SDS011;5176;42.622;25.386;2022-08-01T05:18:47;3.05;;;2.80;;
9438;SDS011;5176;42.622;25.386;2022-08-01T05:21:13;4.13;;;2.80;;
9438;SDS011;5176;42.622;25.386;2022-08-01T05:23:40;7.22;;;2.83;;
9438;SDS011;5176;42.622;25.386;2022-08-01T05:26:07;5.43;;;3.03;;
9438;SDS011;5176;42.622;25.386;2022-08-01T05:28:34;3.90;;;3.42;;
9438;SDS011;5176;42.622;25.386;2022-08-01T05:31:01;3.55;;;3.30;;
9438;SDS011;5176;42.622;25.386;2022-08-01T05:33:29;3.50;;;3.30;;
9438;SDS011;5176;42.622;25.386;2022-08-01T05:35:57;3.17;;;2.58;;
9438;SDS011;5176;42.622;25.386;2022-08-01T05:38:24;3.10;;;2.90;;
9438;SDS011;5176;42.622;25.386;2022-08-01T05:40:51;3.10;;;2.90;;
9438;SDS011;5176;42.622;25.386;2022-08-01T05:43:17;2.65;;;2.45;;
9438;SDS011;5176;42.622;25.386;2022-08-01T05:45:44;5.97;;;4.78;;
9438;SDS011;5176;42.622;25.386;2022-08-01T05:48:12;5.45;;;2.75;;
9438;SDS011;5176;42.622;25.386;2022-08-01T05:50:39;4.18;;;3.88;;
9438;SDS011;5176;42.622;25.386;2022-08-01T05:53:14;3.40;;;2.58;;
9438;SDS011;5176;42.622;25.386;2022-08-01T05:55:41;4.53;;;2.47;;
9438;SDS011;5176;42.622;25.386;2022-08-01T05:58:08;3.63;;;3.05;;
9438;SDS011;5176;42.622;25.386;2022-08-01T06:00:35;2.75;;;2.55;;
9438;SDS011;5176;42.622;25.386;2022-08-01T06:03:02;3.17;;;2.47;;
9438;SDS011;5176;42.622;25.386;2022-08-01T06:05:29;2.67;;;2.58;;
9438;SDS011;5176;42.622;25.386;2022-08-01T06:07:56;2.95;;;2.75;;
9438;SDS011;5176;42.622;25.386;2022-08-01T06:10:25;3.00;;;2.72;;
9438;SDS011;5176;42.622;25.386;2022-08-01T06:12:51;3.00;;;2.80;;
9438;SDS011;5176;42.622;25.386;2022-08-01T06:15:18;2.70;;;2.50;;
9438;SDS011;5176;42.622;25.386;2022-08-01T06:17:45;3.00;;;2.80;;
9438;SDS011;5176;42.622;25.386;2022-08-01T06:20:12;2.72;;;2.53;;
9438;SDS011;5176;42.622;25.386;2022-08-01T06:22:39;2.83;;;2.63;;
9438;SDS011;5176;42.622;25.386;2022-08-01T06:25:07;3.28;;;2.72;;
9438;SDS011;5176;42.622;25.386;2022-08-01T06:27:36;2.83;;;2.60;;
9438;SDS011;5176;42.622;25.386;2022-08-01T06:30:03;3.42;;;3.13;;
9438;SDS011;5176;42.622;25.386;2022-08-01T06:32:32;3.65;;;2.70;;
9438;SDS011;5176;42.622;25.386;2022-08-01T06:34:59;2.70;;;2.55;;
9438;SDS011;5176;42.622;25.386;2022-08-01T06:37:28;4.60;;;2.90;;
9438;SDS011;5176;42.622;25.386;2022-08-01T06:39:55;3.40;;;3.20;;
9438;SDS011;5176;42.622;25.386;2022-08-01T06:42:22;4.28;;;3.88;;
9438;SDS011;5176;42.622;25.386;2022-08-01T06:44:51;3.80;;;3.05;;
9438;SDS011;5176;42.622;25.386;2022-08-01T06:47:18;4.95;;;2.97;;
9438;SDS011;5176;42.622;25.386;2022-08-01T06:49:45;2.65;;;2.55;;
9438;SDS011;5176;42.622;25.386;2022-08-01T06:52:12;3.10;;;2.88;;
9438;SDS011;5176;42.622;25.386;2022-08-01T06:54:38;3.22;;;2.63;;
9438;SDS011;5176;42.622;25.386;2022-08-01T06:57:05;3.45;;;2.45;;
9438;SDS011;5176;42.622;25.386;2022-08-01T06:59:32;2.92;;;2.63;;
9438;SDS011;5176;42.622;25.386;2022-08-01T07:02:00;4.80;;;2.88;;
9438;SDS011;5176;42.622;25.386;2022-08-01T07:04:28;2.90;;;2.45;;
9438;SDS011;5176;42.622;25.386;2022-08-01T07:06:55;3.10;;;2.80;;
9438;SDS011;5176;42.622;25.386;2022-08-01T07:09:22;3.33;;;2.78;;
9438;SDS011;5176;42.622;25.386;2022-08-01T07:11:48;3.65;;;2.72;;
9438;SDS011;5176;42.622;25.386;2022-08-01T07:14:17;2.72;;;2.60;;
9438;SDS011;5176;42.622;25.386;2022-08-01T07:16:44;2.55;;;2.40;;
9438;SDS011;5176;42.622;25.386;2022-08-01T07:19:12;2.67;;;2.50;;
9438;SDS011;5176;42.622;25.386;2022-08-01T07:21:39;2.92;;;2.72;;
9438;SDS011;5176;42.622;25.386;2022-08-01T07:24:07;3.00;;;2.53;;
9438;SDS011;5176;42.622;25.386;2022-08-01T07:26:35;2.53;;;2.42;;
9438;SDS011;5176;42.622;25.386;2022-08-01T07:29:02;3.80;;;2.80;;
9438;SDS011;5176;42.622;25.386;2022-08-01T07:31:28;3.33;;;2.65;;
9438;SDS011;5176;42.622;25.386;2022-08-01T07:33:55;3.42;;;2.83;;
9438;SDS011;5176;42.622;25.386;2022-08-01T07:36:24;3.42;;;2.92;;
9438;SDS011;5176;42.622;25.386;2022-08-01T07:38:50;3.00;;;2.70;;
9438;SDS011;5176;42.622;25.386;2022-08-01T07:41:17;3.83;;;2.60;;
9438;SDS011;5176;42.622;25.386;2022-08-01T07:43:44;2.70;;;2.50;;
9438;SDS011;5176;42.622;25.386;2022-08-01T07:46:12;2.95;;;2.67;;
9438;SDS011;5176;42.622;25.386;2022-08-01T07:48:39;3.05;;;2.65;;
9438;SDS011;5176;42.622;25.386;2022-08-01T07:51:06;4.70;;;2.50;;
9438;SDS011;5176;42.622;25.386;2022-08-01T07:53:34;2.45;;;2.33;;
9438;SDS011;5176;42.622;25.386;2022-08-01T07:56:01;4.20;;;2.60;;
9438;SDS011;5176;42.622;25.386;2022-08-01T07:58:30;3.03;;;2.60;;
9438;SDS011;5176;42.622;25.386;2022-08-01T08:00:57;3.00;;;2.80;;
9438;SDS011;5176;42.622;25.386;2022-08-01T08:03:23;2.63;;;2.42;;
9438;SDS011;5176;42.622;25.386;2022-08-01T08:05:51;3.75;;;2.60;;
9438;SDS011;5176;42.622;25.386;2022-08-01T08:08:18;2.75;;;2.65;;
9438;SDS011;5176;42.622;25.386;2022-08-01T08:10:46;4.53;;;2.58;;
9438;SDS011;5176;42.622;25.386;2022-08-01T08:13:13;3.90;;;3.00;;
9438;SDS011;5176;42.622;25.386;2022-08-01T08:15:40;6.07;;;2.80;;
9438;SDS011;5176;42.622;25.386;2022-08-01T08:18:07;4.20;;;2.83;;
9438;SDS011;5176;42.622;25.386;2022-08-01T08:20:34;2.72;;;2.63;;
9438;SDS011;5176;42.622;25.386;2022-08-01T08:23:00;6.32;;;3.25;;
9438;SDS011;5176;42.622;25.386;2022-08-01T08:25:49;3.25;;;2.90;;
9438;SDS011;5176;42.622;25.386;2022-08-01T08:28:16;3.17;;;2.95;;
9438;SDS011;5176;42.622;25.386;2022-08-01T08:30:42;3.40;;;3.20;;
9438;SDS011;5176;42.622;25.386;2022-08-01T08:33:09;3.17;;;2.97;;
9438;SDS011;5176;42.622;25.386;2022-08-01T08:35:38;4.32;;;3.10;;
9438;SDS011;5176;42.622;25.386;2022-08-01T08:38:06;3.42;;;3.10;;
9438;SDS011;5176;42.622;25.386;2022-08-01T08:40:34;5.43;;;3.30;;
9438;SDS011;5176;42.622;25.386;2022-08-01T08:43:05;3.38;;;3.10;;
9438;SDS011;5176;42.622;25.386;2022-08-01T08:45:32;3.15;;;2.95;;
9438;SDS011;5176;42.622;25.386;2022-08-01T08:48:00;5.05;;;3.10;;
9438;SDS011;5176;42.622;25.386;2022-08-01T08:50:28;3.72;;;3.42;;
9438;SDS011;5176;42.622;25.386;2022-08-01T08:52:55;3.10;;;2.55;;
9438;SDS011;5176;42.622;25.386;2022-08-01T08:55:27;4.32;;;3.03;;
9438;SDS011;5176;42.622;25.386;2022-08-01T08:57:55;2.90;;;2.70;;
9438;SDS011;5176;42.622;25.386;2022-08-01T09:00:26;2.72;;;2.20;;
9438;SDS011;5176;42.622;25.386;2022-08-01T09:02:53;2.28;;;2.15;;
9438;SDS011;5176;42.622;25.386;2022-08-01T09:05:22;2.25;;;2.15;;
9438;SDS011;5176;42.622;25.386;2022-08-01T09:07:51;5.22;;;2.60;;
9438;SDS011;5176;42.622;25.386;2022-08-01T09:10:19;2.60;;;2.50;;
9438;SDS011;5176;42.622;25.386;2022-08-01T09:13:02;2.30;;;2.20;;
9438;SDS011;5176;42.622;25.386;2022-08-01T09:15:39;2.28;;;2.15;;
9438;SDS011;5176;42.622;25.386;2022-08-01T09:18:28;2.55;;;2.35;;
9438;SDS011;5176;42.622;25.386;2022-08-01T09:21:12;2.55;;;2.35;;
9438;SDS011;5176;42.622;25.386;2022-08-01T09:23:43;2.42;;;2.30;;
9438;SDS011;5176;42.622;25.386;2022-08-01T09:26:12;3.47;;;2.33;;
9438;SDS011;5176;42.622;25.386;2022-08-01T09:28:40;3.67;;;2.35;;
9438;SDS011;5176;42.622;25.386;2022-08-01T09:31:10;2.35;;;2.05;;
9438;SDS011;5176;42.622;25.386;2022-08-01T09:33:46;2.67;;;2.08;;
9438;SDS011;5176;42.622;25.386;2022-08-01T09:36:18;2.25;;;2.05;;
9438;SDS011;5176;42.622;25.386;2022-08-01T09:38:46;3.08;;;2.42;;
9438;SDS011;5176;42.622;25.386;2022-08-01T09:41:13;2.60;;;2.50;;
9438;SDS011;5176;42.622;25.386;2022-08-01T09:43:41;3.10;;;2.80;;
9438;SDS011;5176;42.622;25.386;2022-08-01T09:46:17;2.70;;;2.50;;
9438;SDS011;5176;42.622;25.386;2022-08-01T09:48:57;2.67;;;2.47;;
9438;SDS011;5176;42.622;25.386;2022-08-01T09:51:32;2.97;;;2.40;;
9438;SDS011;5176;42.622;25.386;2022-08-01T09:54:00;4.30;;;2.40;;
9438;SDS011;5176;42.622;25.386;2022-08-01T09:56:35;2.70;;;2.55;;
9438;SDS011;5176;42.622;25.386;2022-08-01T09:59:04;3.10;;;2.90;;
9438;SDS011;5176;42.622;25.386;2022-08-01T10:01:43;2.90;;;2.70;;
9438;SDS011;5176;42.622;25.386;2022-08-01T10:04:12;2.67;;;2.58;;
9438;SDS011;5176;42.622;25.386;2022-08-01T10:06:41;2.70;;;2.60;;
9438;SDS011;5176;42.622;25.386;2022-08-01T10:09:09;3.00;;;2.70;;
9438;SDS011;5176;42.622;25.386;2022-08-01T10:11:37;3.28;;;3.08;;
9438;SDS011;5176;42.622;25.386;2022-08-01T10:14:07;3.55;;;2.78;;
9438;SDS011;5176;42.622;25.386;2022-08-01T10:16:35;3.13;;;2.92;;
9438;SDS011;5176;42.622;25.386;2022-08-01T10:19:05;3.90;;;3.30;;
9438;SDS011;5176;42.622;25.386;2022-08-01T10:21:33;3.40;;;3.20;;
9438;SDS011;5176;42.622;25.386;2022-08-01T10:24:04;3.42;;;3.13;;
9438;SDS011;5176;42.622;25.386;2022-08-01T10:26:33;3.58;;;3.38;;
9438;SDS011;5176;42.622;25.386;2022-08-01T10:29:02;3.50;;;2.90;;
9438;SDS011;5176;42.622;25.386;2022-08-01T10:31:31;3.65;;;3.30;;
9438;SDS011;5176;42.622;25.386;2022-08-01T10:34:00;3.30;;;3.10;;
9438;SDS011;5176;42.622;25.386;2022-08-01T10:36:29;5.00;;;3.35;;
9438;SDS011;5176;42.622;25.386;2022-08-01T10:38:58;5.30;;;3.50;;
9438;SDS011;5176;42.622;25.386;2022-08-01T10:41:26;3.40;;;3.20;;
9438;SDS011;5176;42.622;25.386;2022-08-01T10:43:54;3.65;;;3.33;;
9438;SDS011;5176;42.622;25.386;2022-08-01T10:46:21;3.30;;;3.10;;
9438;SDS011;5176;42.622;25.386;2022-08-01T10:48:49;3.50;;;3.30;;
9438;SDS011;5176;42.622;25.386;2022-08-01T10:51:19;3.42;;;3.08;;
9438;SDS011;5176;42.622;25.386;2022-08-01T10:53:49;5.57;;;3.00;;
9438;SDS011;5176;42.622;25.386;2022-08-01T10:56:17;3.55;;;3.25;;
9438;SDS011;5176;42.622;25.386;2022-08-01T10:58:46;3.20;;;3.00;;
9438;SDS011;5176;42.622;25.386;2022-08-01T11:01:15;5.78;;;3.22;;
9438;SDS011;5176;42.622;25.386;2022-08-01T11:03:56;4.55;;;3.20;;
9438;SDS011;5176;42.622;25.386;2022-08-01T11:06:41;3.28;;;3.08;;
9438;SDS011;5176;42.622;25.386;2022-08-01T11:09:24;3.60;;;3.30;;
9438;SDS011;5176;42.622;25.386;2022-08-01T11:11:58;4.88;;;3.20;;
9438;SDS011;5176;42.622;25.386;2022-08-01T11:14:27;3.50;;;3.20;;
9438;SDS011;5176;42.622;25.386;2022-08-01T11:16:54;4.07;;;3.30;;
9438;SDS011;5176;42.622;25.386;2022-08-01T11:19:21;3.35;;;3.15;;
9438;SDS011;5176;42.622;25.386;2022-08-01T11:21:58;3.35;;;3.15;;
9438;SDS011;5176;42.622;25.386;2022-08-01T11:27:24;3.45;;;3.15;;
9438;SDS011;5176;42.622;25.386;2022-08-01T11:32:55;3.30;;;3.10;;
9438;SDS011;5176;42.622;25.386;2022-08-01T11:35:23;3.50;;;2.72;;
9438;SDS011;5176;42.622;25.386;2022-08-01T11:37:52;3.28;;;2.75;;
9438;SDS011;5176;42.622;25.386;2022-08-01T11:40:22;3.60;;;2.90;;
9438;SDS011;5176;42.622;25.386;2022-08-01T11:42:51;3.85;;;2.70;;
9438;SDS011;5176;42.622;25.386;2022-08-01T11:45:46;3.03;;;2.50;;
9438;SDS011;5176;42.622;25.386;2022-08-01T11:48:17;3.85;;;2.80;;
9438;SDS011;5176;42.622;25.386;2022-08-01T11:50:44;2.97;;;2.70;;
9438;SDS011;5176;42.622;25.386;2022-08-01T11:53:12;2.60;;;2.40;;
9438;SDS011;5176;42.622;25.386;2022-08-01T11:55:45;2.63;;;2.53;;
9438;SDS011;5176;42.622;25.386;2022-08-01T11:58:14;2.60;;;2.40;;
9438;SDS011;5176;42.622;25.386;2022-08-01T12:00:42;2.75;;;2.40;;
9438;SDS011;5176;42.622;25.386;2022-08-01T12:03:16;2.03;;;1.92;;
9438;SDS011;5176;42.622;25.386;2022-08-01T12:05:50;3.50;;;2.10;;
9438;SDS011;5176;42.622;25.386;2022-08-01T12:08:23;2.25;;;2.15;;
9438;SDS011;5176;42.622;25.386;2022-08-01T12:10:52;2.58;;;2.38;;
9438;SDS011;5176;42.622;25.386;2022-08-01T12:13:20;2.30;;;2.20;;
9438;SDS011;5176;42.622;25.386;2022-08-01T12:15:47;3.05;;;2.67;;
9438;SDS011;5176;42.622;25.386;2022-08-01T12:18:16;3.05;;;2.28;;
9438;SDS011;5176;42.622;25.386;2022-08-01T12:20:44;2.35;;;2.15;;
9438;SDS011;5176;42.622;25.386;2022-08-01T12:23:13;2.50;;;2.25;;
9438;SDS011;5176;42.622;25.386;2022-08-01T12:25:41;2.42;;;2.30;;
9438;SDS011;5176;42.622;25.386;2022-08-01T12:28:11;2.47;;;2.30;;
9438;SDS011;5176;42.622;25.386;2022-08-01T12:30:39;3.08;;;2.40;;
9438;SDS011;5176;42.622;25.386;2022-08-01T12:33:07;2.78;;;2.25;;
9438;SDS011;5176;42.622;25.386;2022-08-01T12:35:36;3.55;;;2.10;;
9438;SDS011;5176;42.622;25.386;2022-08-01T12:38:07;2.28;;;2.17;;
9438;SDS011;5176;42.622;25.386;2022-08-01T12:40:41;3.10;;;2.40;;
9438;SDS011;5176;42.622;25.386;2022-08-01T12:43:14;2.22;;;2.13;;
9438;SDS011;5176;42.622;25.386;2022-08-01T12:45:43;3.58;;;2.10;;
9438;SDS011;5176;42.622;25.386;2022-08-01T12:48:11;2.78;;;2.50;;
9438;SDS011;5176;42.622;25.386;2022-08-01T12:50:41;3.85;;;2.45;;
9438;SDS011;5176;42.622;25.386;2022-08-01T12:53:09;2.55;;;2.40;;
9438;SDS011;5176;42.622;25.386;2022-08-01T12:55:43;2.10;;;2.00;;
9438;SDS011;5176;42.622;25.386;2022-08-01T12:58:13;1.90;;;1.80;;
9438;SDS011;5176;42.622;25.386;2022-08-01T13:00:42;2.08;;;1.98;;
9438;SDS011;5176;42.622;25.386;2022-08-01T13:03:11;3.38;;;2.05;;
9438;SDS011;5176;42.622;25.386;2022-08-01T13:05:43;1.88;;;1.77;;
9438;SDS011;5176;42.622;25.386;2022-08-01T13:08:11;2.47;;;1.95;;
9438;SDS011;5176;42.622;25.386;2022-08-01T13:10:39;3.80;;;2.20;;
9438;SDS011;5176;42.622;25.386;2022-08-01T13:13:07;3.58;;;1.75;;
9438;SDS011;5176;42.622;25.386;2022-08-01T13:15:36;1.92;;;1.75;;
9438;SDS011;5176;42.622;25.386;2022-08-01T13:20:50;2.78;;;1.80;;
9438;SDS011;5176;42.622;25.386;2022-08-01T13:23:33;3.20;;;2.00;;
9438;SDS011;5176;42.622;25.386;2022-08-01T13:26:00;2.92;;;1.80;;
9438;SDS011;5176;42.622;25.386;2022-08-01T13:28:27;2.08;;;1.98;;
9438;SDS011;5176;42.622;25.386;2022-08-01T13:31:02;1.70;;;1.60;;
9438;SDS011;5176;42.622;25.386;2022-08-01T13:33:39;2.08;;;1.92;;
9438;SDS011;5176;42.622;25.386;2022-08-01T13:36:08;3.97;;;1.90;;
9438;SDS011;5176;42.622;25.386;2022-08-01T13:38:35;2.80;;;1.95;;
9438;SDS011;5176;42.622;25.386;2022-08-01T13:41:19;2.78;;;1.98;;
9438;SDS011;5176;42.622;25.386;2022-08-01T13:43:46;2.67;;;1.92;;
9438;SDS011;5176;42.622;25.386;2022-08-01T13:46:14;2.10;;;1.75;;
9438;SDS011;5176;42.622;25.386;2022-08-01T13:48:41;1.80;;;1.70;;
9438;SDS011;5176;42.622;25.386;2022-08-01T13:51:08;2.45;;;1.70;;
9438;SDS011;5176;42.622;25.386;2022-08-01T13:53:35;2.22;;;1.73;;
9438;SDS011;5176;42.622;25.386;2022-08-01T13:56:02;1.80;;;1.70;;
9438;SDS011;5176;42.622;25.386;2022-08-01T13:58:29;1.70;;;1.60;;
9438;SDS011;5176;42.622;25.386;2022-08-01T14:00:56;2.00;;;1.90;;
9438;SDS011;5176;42.622;25.386;2022-08-01T14:03:25;1.90;;;1.80;;
9438;SDS011;5176;42.622;25.386;2022-08-01T14:05:52;2.22;;;2.13;;
9438;SDS011;5176;42.622;25.386;2022-08-01T14:08:19;2.40;;;2.20;;
9438;SDS011;5176;42.622;25.386;2022-08-01T14:10:45;1.80;;;1.70;;
9438;SDS011;5176;42.622;25.386;2022-08-01T14:13:12;1.92;;;1.83;;
9438;SDS011;5176;42.622;25.386;2022-08-01T14:15:39;2.00;;;1.90;;
9438;SDS011;5176;42.622;25.386;2022-08-01T14:18:06;1.90;;;1.80;;
9438;SDS011;5176;42.622;25.386;2022-08-01T14:20:35;2.28;;;1.80;;
9438;SDS011;5176;42.622;25.386;2022-08-01T14:23:03;1.80;;;1.70;;
9438;SDS011;5176;42.622;25.386;2022-08-01T14:25:29;1.50;;;1.50;;
9438;SDS011;5176;42.622;25.386;2022-08-01T14:27:56;1.52;;;1.50;;
9438;SDS011;5176;42.622;25.386;2022-08-01T14:30:23;4.65;;;1.90;;
9438;SDS011;5176;42.622;25.386;2022-08-01T14:32:50;2.50;;;1.85;;
9438;SDS011;5176;42.622;25.386;2022-08-01T14:35:17;2.38;;;1.90;;
9438;SDS011;5176;42.622;25.386;2022-08-01T14:37:45;3.38;;;1.73;;
9438;SDS011;5176;42.622;25.386;2022-08-01T14:40:12;1.60;;;1.50;;
9438;SDS011;5176;42.622;25.386;2022-08-01T14:42:39;2.35;;;1.42;;
9438;SDS011;5176;42.622;25.386;2022-08-01T14:45:06;1.63;;;1.52;;
9438;SDS011;5176;42.622;25.386;2022-08-01T14:47:35;2.80;;;1.80;;
9438;SDS011;5176;42.622;25.386;2022-08-01T14:50:03;2.22;;;1.50;;
9438;SDS011;5176;42.622;25.386;2022-08-01T14:52:31;2.40;;;2.20;;
9438;SDS011;5176;42.622;25.386;2022-08-01T14:54:59;1.88;;;1.65;;
9438;SDS011;5176;42.622;25.386;2022-08-01T14:57:26;2.30;;;1.58;;
9438;SDS011;5176;42.622;25.386;2022-08-01T14:59:53;1.85;;;1.75;;
9438;SDS011;5176;42.622;25.386;2022-08-01T15:02:20;1.85;;;1.73;;
9438;SDS011;5176;42.622;25.386;2022-08-01T15:04:47;1.92;;;1.83;;
9438;SDS011;5176;42.622;25.386;2022-08-01T15:07:15;1.77;;;1.67;;
9438;SDS011;5176;42.622;25.386;2022-08-01T15:09:43;1.98;;;1.88;;
9438;SDS011;5176;42.622;25.386;2022-08-01T15:12:11;2.08;;;1.90;;
9438;SDS011;5176;42.622;25.386;2022-08-01T15:14:38;1.83;;;1.65;;
9438;SDS011;5176;42.622;25.386;2022-08-01T15:17:15;1.70;;;1.60;;
9438;SDS011;5176;42.622;25.386;2022-08-01T15:19:43;1.75;;;1.60;;
9438;SDS011;5176;42.622;25.386;2022-08-01T15:22:10;1.70;;;1.60;;